sensor_id;sensor_type;location;lat;lon;timestamp;temperature;humidity
76785;SHT30;66893;44.316;0.092;2024-02-21T00:01:53;16.75;48.69
76785;SHT30;66893;44.316;0.092;2024-02-21T00:04:18;16.72;48.70
76785;SHT30;66893;44.316;0.092;2024-02-21T00:06:43;16.72;48.66
76785;SHT30;66893;44.316;0.092;2024-02-21T00:09:09;16.66;48.71
76785;SHT30;66893;44.316;0.092;2024-02-21T00:11:35;16.69;48.67
76785;SHT30;66893;44.316;0.092;2024-02-21T00:14:00;16.66;48.68
76785;SHT30;66893;44.316;0.092;2024-02-21T00:16:25;16.65;48.73
76785;SHT30;66893;44.316;0.092;2024-02-21T00:18:51;16.62;48.70
76785;SHT30;66893;44.316;0.092;2024-02-21T00:21:16;16.62;48.66
76785;SHT30;66893;44.316;0.092;2024-02-21T00:23:46;16.59;48.73
76785;SHT30;66893;44.316;0.092;2024-02-21T00:26:12;16.59;48.71
76785;SHT30;66893;44.316;0.092;2024-02-21T00:28:38;16.58;48.68
76785;SHT30;66893;44.316;0.092;2024-02-21T00:31:04;16.54;48.73
76785;SHT30;66893;44.316;0.092;2024-02-21T00:33:29;16.52;48.68
76785;SHT30;66893;44.316;0.092;2024-02-21T00:35:55;16.49;48.68
76785;SHT30;66893;44.316;0.092;2024-02-21T00:38:20;16.51;48.65
76785;SHT30;66893;44.316;0.092;2024-02-21T00:40:46;16.49;48.63
76785;SHT30;66893;44.316;0.092;2024-02-21T00:43:11;16.47;48.67
76785;SHT30;66893;44.316;0.092;2024-02-21T00:45:36;16.42;48.64
76785;SHT30;66893;44.316;0.092;2024-02-21T00:48:02;16.41;48.66
76785;SHT30;66893;44.316;0.092;2024-02-21T00:50:27;16.37;48.66
76785;SHT30;66893;44.316;0.092;2024-02-21T00:52:53;16.37;48.67
76785;SHT30;66893;44.316;0.092;2024-02-21T00:55:18;16.35;48.68
76785;SHT30;66893;44.316;0.092;2024-02-21T00:57:44;16.31;48.69
76785;SHT30;66893;44.316;0.092;2024-02-21T01:00:09;16.32;48.68
76785;SHT30;66893;44.316;0.092;2024-02-21T01:02:35;16.31;48.73
76785;SHT30;66893;44.316;0.092;2024-02-21T01:05:02;16.28;48.72
76785;SHT30;66893;44.316;0.092;2024-02-21T01:07:27;16.31;48.62
76785;SHT30;66893;44.316;0.092;2024-02-21T01:09:53;16.27;48.66
76785;SHT30;66893;44.316;0.092;2024-02-21T01:12:18;16.22;48.70
76785;SHT30;66893;44.316;0.092;2024-02-21T01:14:44;16.22;48.69
76785;SHT30;66893;44.316;0.092;2024-02-21T01:17:11;16.21;48.71
76785;SHT30;66893;44.316;0.092;2024-02-21T01:19:36;16.21;48.67
76785;SHT30;66893;44.316;0.092;2024-02-21T01:22:02;16.18;48.68
76785;SHT30;66893;44.316;0.092;2024-02-21T01:24:28;16.20;48.68
76785;SHT30;66893;44.316;0.092;2024-02-21T01:26:53;16.17;48.66
76785;SHT30;66893;44.316;0.092;2024-02-21T01:29:19;16.16;48.59
76785;SHT30;66893;44.316;0.092;2024-02-21T01:31:44;16.13;48.60
76785;SHT30;66893;44.316;0.092;2024-02-21T01:34:09;16.14;48.58
76785;SHT30;66893;44.316;0.092;2024-02-21T01:36:35;16.10;48.57
76785;SHT30;66893;44.316;0.092;2024-02-21T01:39:00;16.09;48.55
76785;SHT30;66893;44.316;0.092;2024-02-21T01:41:25;16.06;48.53
76785;SHT30;66893;44.316;0.092;2024-02-21T01:43:51;16.06;48.61
76785;SHT30;66893;44.316;0.092;2024-02-21T01:46:17;16.02;48.51
76785;SHT30;66893;44.316;0.092;2024-02-21T01:48:43;16.02;48.62
76785;SHT30;66893;44.316;0.092;2024-02-21T01:51:11;15.99;48.59
76785;SHT30;66893;44.316;0.092;2024-02-21T01:53:39;15.99;48.55
76785;SHT30;66893;44.316;0.092;2024-02-21T01:56:08;15.99;48.60
76785;SHT30;66893;44.316;0.092;2024-02-21T01:58:36;15.94;48.55
76785;SHT30;66893;44.316;0.092;2024-02-21T02:01:02;15.92;48.51
76785;SHT30;66893;44.316;0.092;2024-02-21T02:03:28;15.92;48.53
76785;SHT30;66893;44.316;0.092;2024-02-21T02:05:55;15.90;48.45
76785;SHT30;66893;44.316;0.092;2024-02-21T02:08:20;15.86;48.54
76785;SHT30;66893;44.316;0.092;2024-02-21T02:10:49;15.83;48.50
76785;SHT30;66893;44.316;0.092;2024-02-21T02:13:14;15.82;48.46
76785;SHT30;66893;44.316;0.092;2024-02-21T02:15:44;15.81;48.52
76785;SHT30;66893;44.316;0.092;2024-02-21T02:18:10;15.78;48.44
76785;SHT30;66893;44.316;0.092;2024-02-21T02:20:36;15.76;48.41
76785;SHT30;66893;44.316;0.092;2024-02-21T02:23:24;15.76;48.40
76785;SHT30;66893;44.316;0.092;2024-02-21T02:25:50;15.73;48.37
76785;SHT30;66893;44.316;0.092;2024-02-21T02:28:18;15.70;48.33
76785;SHT30;66893;44.316;0.092;2024-02-21T02:30:44;15.69;48.28
76785;SHT30;66893;44.316;0.092;2024-02-21T02:33:10;15.68;48.34
76785;SHT30;66893;44.316;0.092;2024-02-21T02:35:35;15.66;48.26
76785;SHT30;66893;44.316;0.092;2024-02-21T02:38:02;15.61;48.22
76785;SHT30;66893;44.316;0.092;2024-02-21T02:40:27;15.61;48.23
76785;SHT30;66893;44.316;0.092;2024-02-21T02:42:53;15.61;48.23
76785;SHT30;66893;44.316;0.092;2024-02-21T02:45:21;15.58;48.22
76785;SHT30;66893;44.316;0.092;2024-02-21T02:47:48;15.56;48.19
76785;SHT30;66893;44.316;0.092;2024-02-21T02:50:14;15.54;48.13
76785;SHT30;66893;44.316;0.092;2024-02-21T02:52:39;15.49;48.21
76785;SHT30;66893;44.316;0.092;2024-02-21T02:55:06;15.48;48.14
76785;SHT30;66893;44.316;0.092;2024-02-21T02:57:32;15.47;48.08
76785;SHT30;66893;44.316;0.092;2024-02-21T02:59:57;15.45;48.06
76785;SHT30;66893;44.316;0.092;2024-02-21T03:02:23;15.42;48.04
76785;SHT30;66893;44.316;0.092;2024-02-21T03:04:48;15.41;48.06
76785;SHT30;66893;44.316;0.092;2024-02-21T03:07:14;15.39;48.04
76785;SHT30;66893;44.316;0.092;2024-02-21T03:09:40;15.38;48.04
76785;SHT30;66893;44.316;0.092;2024-02-21T03:12:06;15.34;47.97
76785;SHT30;66893;44.316;0.092;2024-02-21T03:14:32;15.34;48.04
76785;SHT30;66893;44.316;0.092;2024-02-21T03:16:58;15.31;48.04
76785;SHT30;66893;44.316;0.092;2024-02-21T03:19:24;15.30;47.92
76785;SHT30;66893;44.316;0.092;2024-02-21T03:21:50;15.28;47.96
76785;SHT30;66893;44.316;0.092;2024-02-21T03:24:16;15.27;48.00
76785;SHT30;66893;44.316;0.092;2024-02-21T03:26:42;15.24;47.88
76785;SHT30;66893;44.316;0.092;2024-02-21T03:29:08;15.26;47.91
76785;SHT30;66893;44.316;0.092;2024-02-21T03:31:34;15.23;47.80
76785;SHT30;66893;44.316;0.092;2024-02-21T03:34:00;15.21;47.87
76785;SHT30;66893;44.316;0.092;2024-02-21T03:36:25;15.19;47.89
76785;SHT30;66893;44.316;0.092;2024-02-21T03:38:51;15.20;47.83
76785;SHT30;66893;44.316;0.092;2024-02-21T03:41:16;15.19;47.75
76785;SHT30;66893;44.316;0.092;2024-02-21T03:43:42;15.19;47.73
76785;SHT30;66893;44.316;0.092;2024-02-21T03:46:07;15.17;47.66
76785;SHT30;66893;44.316;0.092;2024-02-21T03:48:33;15.17;47.75
76785;SHT30;66893;44.316;0.092;2024-02-21T03:50:58;15.11;47.58
76785;SHT30;66893;44.316;0.092;2024-02-21T03:53:24;15.10;47.56
76785;SHT30;66893;44.316;0.092;2024-02-21T03:55:49;15.06;47.65
76785;SHT30;66893;44.316;0.092;2024-02-21T03:58:15;15.07;47.63
76785;SHT30;66893;44.316;0.092;2024-02-21T04:00:40;15.04;47.62
76785;SHT30;66893;44.316;0.092;2024-02-21T04:03:06;15.01;47.56
76785;SHT30;66893;44.316;0.092;2024-02-21T04:05:32;14.99;47.56
76785;SHT30;66893;44.316;0.092;2024-02-21T04:07:57;14.97;47.43
76785;SHT30;66893;44.316;0.092;2024-02-21T04:10:22;14.97;47.51
76785;SHT30;66893;44.316;0.092;2024-02-21T04:12:48;14.93;47.54
76785;SHT30;66893;44.316;0.092;2024-02-21T04:15:16;14.93;47.50
76785;SHT30;66893;44.316;0.092;2024-02-21T04:17:41;14.92;47.52
76785;SHT30;66893;44.316;0.092;2024-02-21T04:20:14;14.90;47.50
76785;SHT30;66893;44.316;0.092;2024-02-21T04:22:40;14.87;47.48
76785;SHT30;66893;44.316;0.092;2024-02-21T04:25:06;14.87;47.50
76785;SHT30;66893;44.316;0.092;2024-02-21T04:27:31;14.86;47.43
76785;SHT30;66893;44.316;0.092;2024-02-21T04:29:57;14.87;47.42
76785;SHT30;66893;44.316;0.092;2024-02-21T04:32:22;14.86;47.42
76785;SHT30;66893;44.316;0.092;2024-02-21T04:34:48;14.86;47.43
76785;SHT30;66893;44.316;0.092;2024-02-21T04:37:13;14.86;47.37
76785;SHT30;66893;44.316;0.092;2024-02-21T04:39:38;14.83;47.38
76785;SHT30;66893;44.316;0.092;2024-02-21T04:42:04;14.80;47.25
76785;SHT30;66893;44.316;0.092;2024-02-21T04:44:29;14.79;47.45
76785;SHT30;66893;44.316;0.092;2024-02-21T04:46:55;14.77;47.35
76785;SHT30;66893;44.316;0.092;2024-02-21T04:49:20;14.76;47.35
76785;SHT30;66893;44.316;0.092;2024-02-21T04:51:46;14.75;47.36
76785;SHT30;66893;44.316;0.092;2024-02-21T04:54:11;14.76;47.33
76785;SHT30;66893;44.316;0.092;2024-02-21T04:56:37;14.76;47.28
76785;SHT30;66893;44.316;0.092;2024-02-21T04:59:02;14.72;47.28
76785;SHT30;66893;44.316;0.092;2024-02-21T05:01:30;14.72;47.36
76785;SHT30;66893;44.316;0.092;2024-02-21T05:03:56;14.68;47.35
76785;SHT30;66893;44.316;0.092;2024-02-21T05:06:21;14.71;47.34
76785;SHT30;66893;44.316;0.092;2024-02-21T05:08:47;14.66;47.29
76785;SHT30;66893;44.316;0.092;2024-02-21T05:11:13;14.66;47.29
76785;SHT30;66893;44.316;0.092;2024-02-21T05:13:38;14.65;47.25
76785;SHT30;66893;44.316;0.092;2024-02-21T05:16:04;14.64;47.32
76785;SHT30;66893;44.316;0.092;2024-02-21T05:18:29;14.62;47.27
76785;SHT30;66893;44.316;0.092;2024-02-21T05:20:55;14.62;47.23
76785;SHT30;66893;44.316;0.092;2024-02-21T05:23:20;14.62;47.26
76785;SHT30;66893;44.316;0.092;2024-02-21T05:25:45;14.62;47.17
76785;SHT30;66893;44.316;0.092;2024-02-21T05:28:11;14.59;47.26
76785;SHT30;66893;44.316;0.092;2024-02-21T05:30:36;14.59;47.25
76785;SHT30;66893;44.316;0.092;2024-02-21T05:33:05;14.58;47.29
76785;SHT30;66893;44.316;0.092;2024-02-21T05:35:31;14.58;47.26
76785;SHT30;66893;44.316;0.092;2024-02-21T05:37:56;14.55;47.28
76785;SHT30;66893;44.316;0.092;2024-02-21T05:40:22;14.56;47.26
76785;SHT30;66893;44.316;0.092;2024-02-21T05:42:47;14.56;47.28
76785;SHT30;66893;44.316;0.092;2024-02-21T05:45:13;14.54;47.29
76785;SHT30;66893;44.316;0.092;2024-02-21T05:47:40;14.52;47.26
76785;SHT30;66893;44.316;0.092;2024-02-21T05:50:05;14.52;47.26
76785;SHT30;66893;44.316;0.092;2024-02-21T05:52:31;14.49;47.27
76785;SHT30;66893;44.316;0.092;2024-02-21T05:54:56;14.51;47.25
76785;SHT30;66893;44.316;0.092;2024-02-21T05:57:22;14.52;47.29
76785;SHT30;66893;44.316;0.092;2024-02-21T05:59:47;14.49;47.23
76785;SHT30;66893;44.316;0.092;2024-02-21T06:02:12;14.51;47.24
76785;SHT30;66893;44.316;0.092;2024-02-21T06:04:38;14.48;47.26
76785;SHT30;66893;44.316;0.092;2024-02-21T06:07:04;14.46;47.21
76785;SHT30;66893;44.316;0.092;2024-02-21T06:09:30;14.48;47.23
76785;SHT30;66893;44.316;0.092;2024-02-21T06:11:55;14.44;47.22
76785;SHT30;66893;44.316;0.092;2024-02-21T06:14:21;14.45;47.24
76785;SHT30;66893;44.316;0.092;2024-02-21T06:16:46;14.44;47.21
76785;SHT30;66893;44.316;0.092;2024-02-21T06:19:12;14.41;47.23
76785;SHT30;66893;44.316;0.092;2024-02-21T06:21:37;14.39;47.27
76785;SHT30;66893;44.316;0.092;2024-02-21T06:24:03;14.41;47.27
76785;SHT30;66893;44.316;0.092;2024-02-21T06:26:28;14.39;47.27
76785;SHT30;66893;44.316;0.092;2024-02-21T06:28:54;14.37;47.20
76785;SHT30;66893;44.316;0.092;2024-02-21T06:31:19;14.32;47.22
76785;SHT30;66893;44.316;0.092;2024-02-21T06:33:45;14.32;47.20
76785;SHT30;66893;44.316;0.092;2024-02-21T06:36:10;14.32;47.29
76785;SHT30;66893;44.316;0.092;2024-02-21T06:38:36;14.31;47.22
76785;SHT30;66893;44.316;0.092;2024-02-21T06:41:01;14.29;47.24
76785;SHT30;66893;44.316;0.092;2024-02-21T06:43:28;14.29;47.19
76785;SHT30;66893;44.316;0.092;2024-02-21T06:45:54;14.28;47.20
76785;SHT30;66893;44.316;0.092;2024-02-21T06:48:20;14.29;47.22
76785;SHT30;66893;44.316;0.092;2024-02-21T06:50:45;14.27;47.24
76785;SHT30;66893;44.316;0.092;2024-02-21T06:53:11;14.24;47.23
76785;SHT30;66893;44.316;0.092;2024-02-21T06:55:37;14.25;47.24
76785;SHT30;66893;44.316;0.092;2024-02-21T06:58:02;14.24;47.26
76785;SHT30;66893;44.316;0.092;2024-02-21T07:00:29;14.25;47.29
76785;SHT30;66893;44.316;0.092;2024-02-21T07:02:54;14.20;47.29
76785;SHT30;66893;44.316;0.092;2024-02-21T07:05:19;14.21;47.30
76785;SHT30;66893;44.316;0.092;2024-02-21T07:07:45;14.22;47.26
76785;SHT30;66893;44.316;0.092;2024-02-21T07:10:10;14.22;47.25
76785;SHT30;66893;44.316;0.092;2024-02-21T07:12:36;14.18;47.27
76785;SHT30;66893;44.316;0.092;2024-02-21T07:15:04;14.17;47.34
76785;SHT30;66893;44.316;0.092;2024-02-21T07:17:30;14.17;47.33
76785;SHT30;66893;44.316;0.092;2024-02-21T07:19:56;14.21;47.33
76785;SHT30;66893;44.316;0.092;2024-02-21T07:22:24;14.18;47.31
76785;SHT30;66893;44.316;0.092;2024-02-21T07:24:50;14.20;47.33
76785;SHT30;66893;44.316;0.092;2024-02-21T07:27:15;14.21;47.31
76785;SHT30;66893;44.316;0.092;2024-02-21T07:29:41;14.21;47.36
76785;SHT30;66893;44.316;0.092;2024-02-21T07:32:06;14.21;47.32
76785;SHT30;66893;44.316;0.092;2024-02-21T07:34:32;14.22;47.35
76785;SHT30;66893;44.316;0.092;2024-02-21T07:36:57;14.21;47.37
76785;SHT30;66893;44.316;0.092;2024-02-21T07:39:22;14.24;47.43
76785;SHT30;66893;44.316;0.092;2024-02-21T07:41:48;14.21;47.41
76785;SHT30;66893;44.316;0.092;2024-02-21T07:44:15;14.22;47.41
76785;SHT30;66893;44.316;0.092;2024-02-21T07:46:40;14.20;47.41
76785;SHT30;66893;44.316;0.092;2024-02-21T07:49:06;14.10;47.36
76785;SHT30;66893;44.316;0.092;2024-02-21T07:51:31;14.01;47.48
76785;SHT30;66893;44.316;0.092;2024-02-21T07:53:57;13.99;47.61
76785;SHT30;66893;44.316;0.092;2024-02-21T07:56:22;14.00;47.70
76785;SHT30;66893;44.316;0.092;2024-02-21T07:58:48;14.01;47.73
76785;SHT30;66893;44.316;0.092;2024-02-21T08:01:19;14.03;47.79
76785;SHT30;66893;44.316;0.092;2024-02-21T08:03:47;14.06;47.99
76785;SHT30;66893;44.316;0.092;2024-02-21T08:06:13;14.11;48.02
76785;SHT30;66893;44.316;0.092;2024-02-21T08:08:39;14.13;48.06
76785;SHT30;66893;44.316;0.092;2024-02-21T08:11:05;14.16;48.14
76785;SHT30;66893;44.316;0.092;2024-02-21T08:13:30;14.20;48.21
76785;SHT30;66893;44.316;0.092;2024-02-21T08:15:56;14.21;48.20
76785;SHT30;66893;44.316;0.092;2024-02-21T08:18:22;14.25;48.32
76785;SHT30;66893;44.316;0.092;2024-02-21T08:20:48;14.27;48.35
76785;SHT30;66893;44.316;0.092;2024-02-21T08:23:16;14.28;48.42
76785;SHT30;66893;44.316;0.092;2024-02-21T08:25:41;14.29;48.47
76785;SHT30;66893;44.316;0.092;2024-02-21T08:28:07;14.35;48.52
76785;SHT30;66893;44.316;0.092;2024-02-21T08:30:33;14.37;48.57
76785;SHT30;66893;44.316;0.092;2024-02-21T08:32:59;14.39;48.67
76785;SHT30;66893;44.316;0.092;2024-02-21T08:35:25;14.39;48.70
76785;SHT30;66893;44.316;0.092;2024-02-21T08:37:50;14.46;48.75
76785;SHT30;66893;44.316;0.092;2024-02-21T08:40:16;14.49;48.80
76785;SHT30;66893;44.316;0.092;2024-02-21T08:42:46;14.51;48.87
76785;SHT30;66893;44.316;0.092;2024-02-21T08:45:13;14.58;48.90
76785;SHT30;66893;44.316;0.092;2024-02-21T08:47:41;14.56;48.93
76785;SHT30;66893;44.316;0.092;2024-02-21T08:50:07;14.62;48.99
76785;SHT30;66893;44.316;0.092;2024-02-21T08:52:35;14.66;48.98
76785;SHT30;66893;44.316;0.092;2024-02-21T08:55:00;14.71;49.06
76785;SHT30;66893;44.316;0.092;2024-02-21T08:57:26;14.75;49.07
76785;SHT30;66893;44.316;0.092;2024-02-21T08:59:52;14.77;49.14
76785;SHT30;66893;44.316;0.092;2024-02-21T09:02:17;14.82;49.18
76785;SHT30;66893;44.316;0.092;2024-02-21T09:04:43;14.86;49.27
76785;SHT30;66893;44.316;0.092;2024-02-21T09:07:11;14.90;49.31
76785;SHT30;66893;44.316;0.092;2024-02-21T09:09:37;14.92;49.39
76785;SHT30;66893;44.316;0.092;2024-02-21T09:12:06;14.94;49.47
76785;SHT30;66893;44.316;0.092;2024-02-21T09:14:32;15.00;49.68
76785;SHT30;66893;44.316;0.092;2024-02-21T09:16:58;15.00;49.68
76785;SHT30;66893;44.316;0.092;2024-02-21T09:19:24;15.03;49.76
76785;SHT30;66893;44.316;0.092;2024-02-21T09:21:49;15.04;49.83
76785;SHT30;66893;44.316;0.092;2024-02-21T09:24:15;15.10;49.95
76785;SHT30;66893;44.316;0.092;2024-02-21T09:26:40;15.10;49.95
76785;SHT30;66893;44.316;0.092;2024-02-21T09:29:05;15.13;50.03
76785;SHT30;66893;44.316;0.092;2024-02-21T09:31:31;15.19;50.33
76785;SHT30;66893;44.316;0.092;2024-02-21T09:33:57;15.19;50.25
76785;SHT30;66893;44.316;0.092;2024-02-21T09:36:22;15.23;50.42
76785;SHT30;66893;44.316;0.092;2024-02-21T09:38:48;15.26;50.49
76785;SHT30;66893;44.316;0.092;2024-02-21T09:41:18;15.28;50.53
76785;SHT30;66893;44.316;0.092;2024-02-21T09:43:44;15.30;50.58
76785;SHT30;66893;44.316;0.092;2024-02-21T09:46:17;15.34;50.78
76785;SHT30;66893;44.316;0.092;2024-02-21T09:51:32;15.41;50.81
76785;SHT30;66893;44.316;0.092;2024-02-21T09:53:59;15.48;50.92
76785;SHT30;66893;44.316;0.092;2024-02-21T09:56:25;15.54;51.04
76785;SHT30;66893;44.316;0.092;2024-02-21T09:58:51;15.63;51.08
76785;SHT30;66893;44.316;0.092;2024-02-21T10:01:16;15.69;51.03
76785;SHT30;66893;44.316;0.092;2024-02-21T10:03:42;15.72;51.10
76785;SHT30;66893;44.316;0.092;2024-02-21T10:06:09;15.78;51.08
76785;SHT30;66893;44.316;0.092;2024-02-21T10:08:34;15.82;51.20
76785;SHT30;66893;44.316;0.092;2024-02-21T10:10:59;15.86;51.22
76785;SHT30;66893;44.316;0.092;2024-02-21T10:13:28;15.94;51.24
76785;SHT30;66893;44.316;0.092;2024-02-21T10:16:07;15.99;51.27
76785;SHT30;66893;44.316;0.092;2024-02-21T10:18:33;16.04;51.29
76785;SHT30;66893;44.316;0.092;2024-02-21T10:21:06;16.07;51.25
76785;SHT30;66893;44.316;0.092;2024-02-21T10:23:46;16.14;51.30
76785;SHT30;66893;44.316;0.092;2024-02-21T10:26:12;16.18;51.32
76785;SHT30;66893;44.316;0.092;2024-02-21T10:28:38;16.25;51.39
76785;SHT30;66893;44.316;0.092;2024-02-21T10:31:24;16.30;51.25
76785;SHT30;66893;44.316;0.092;2024-02-21T10:33:59;16.35;51.31
76785;SHT30;66893;44.316;0.092;2024-02-21T10:36:28;16.44;51.36
76785;SHT30;66893;44.316;0.092;2024-02-21T10:38:54;16.45;51.44
76785;SHT30;66893;44.316;0.092;2024-02-21T10:41:21;16.51;51.53
76785;SHT30;66893;44.316;0.092;2024-02-21T10:43:49;16.51;51.37
76785;SHT30;66893;44.316;0.092;2024-02-21T10:46:19;16.52;51.36
76785;SHT30;66893;44.316;0.092;2024-02-21T10:48:46;16.54;51.47
76785;SHT30;66893;44.316;0.092;2024-02-21T10:51:18;16.58;51.44
76785;SHT30;66893;44.316;0.092;2024-02-21T10:56:28;16.68;51.55
76785;SHT30;66893;44.316;0.092;2024-02-21T10:58:55;16.75;51.46
76785;SHT30;66893;44.316;0.092;2024-02-21T11:01:23;16.79;51.61
76785;SHT30;66893;44.316;0.092;2024-02-21T11:03:51;16.83;51.59
76785;SHT30;66893;44.316;0.092;2024-02-21T11:06:17;16.90;51.54
76785;SHT30;66893;44.316;0.092;2024-02-21T11:08:43;16.93;51.48
76785;SHT30;66893;44.316;0.092;2024-02-21T11:11:12;17.00;51.44
76785;SHT30;66893;44.316;0.092;2024-02-21T11:13:42;17.04;51.36
76785;SHT30;66893;44.316;0.092;2024-02-21T11:16:21;17.12;51.24
76785;SHT30;66893;44.316;0.092;2024-02-21T11:18:48;17.17;51.30
76785;SHT30;66893;44.316;0.092;2024-02-21T11:21:13;17.21;51.30
76785;SHT30;66893;44.316;0.092;2024-02-21T11:23:39;17.30;51.25
76785;SHT30;66893;44.316;0.092;2024-02-21T11:26:08;17.34;51.27
76785;SHT30;66893;44.316;0.092;2024-02-21T11:28:36;17.40;51.27
76785;SHT30;66893;44.316;0.092;2024-02-21T11:31:13;17.47;51.14
76785;SHT30;66893;44.316;0.092;2024-02-21T11:33:42;17.54;51.04
76785;SHT30;66893;44.316;0.092;2024-02-21T11:36:09;17.61;50.85
76785;SHT30;66893;44.316;0.092;2024-02-21T11:38:37;17.65;50.73
76785;SHT30;66893;44.316;0.092;2024-02-21T11:41:02;17.69;50.68
76785;SHT30;66893;44.316;0.092;2024-02-21T11:43:28;17.75;50.74
76785;SHT30;66893;44.316;0.092;2024-02-21T11:46:02;17.81;50.66
76785;SHT30;66893;44.316;0.092;2024-02-21T11:48:29;17.85;50.69
76785;SHT30;66893;44.316;0.092;2024-02-21T11:50:57;17.92;50.71
76785;SHT30;66893;44.316;0.092;2024-02-21T11:53:23;17.96;50.82
76785;SHT30;66893;44.316;0.092;2024-02-21T11:55:49;18.06;50.59
76785;SHT30;66893;44.316;0.092;2024-02-21T11:58:15;18.12;50.41
76785;SHT30;66893;44.316;0.092;2024-02-21T12:00:41;18.16;50.56
76785;SHT30;66893;44.316;0.092;2024-02-21T12:03:07;18.23;50.51
76785;SHT30;66893;44.316;0.092;2024-02-21T12:05:33;18.29;50.46
76785;SHT30;66893;44.316;0.092;2024-02-21T12:07:58;18.37;50.38
76785;SHT30;66893;44.316;0.092;2024-02-21T12:10:26;18.40;50.35
76785;SHT30;66893;44.316;0.092;2024-02-21T12:12:52;18.50;50.29
76785;SHT30;66893;44.316;0.092;2024-02-21T12:15:20;18.55;50.14
76785;SHT30;66893;44.316;0.092;2024-02-21T12:17:45;18.64;50.06
76785;SHT30;66893;44.316;0.092;2024-02-21T12:20:11;18.69;49.99
76785;SHT30;66893;44.316;0.092;2024-02-21T12:22:37;18.75;49.92
76785;SHT30;66893;44.316;0.092;2024-02-21T12:25:23;18.84;49.92
76785;SHT30;66893;44.316;0.092;2024-02-21T12:27:51;18.92;49.79
76785;SHT30;66893;44.316;0.092;2024-02-21T12:30:17;18.98;49.67
76785;SHT30;66893;44.316;0.092;2024-02-21T12:32:43;19.02;49.54
76785;SHT30;66893;44.316;0.092;2024-02-21T12:35:08;19.09;49.56
76785;SHT30;66893;44.316;0.092;2024-02-21T12:37:34;19.16;49.29
76785;SHT30;66893;44.316;0.092;2024-02-21T12:39:59;19.23;49.18
76785;SHT30;66893;44.316;0.092;2024-02-21T12:42:25;19.27;49.06
76785;SHT30;66893;44.316;0.092;2024-02-21T12:44:52;19.33;48.90
76785;SHT30;66893;44.316;0.092;2024-02-21T12:47:18;19.43;48.84
76785;SHT30;66893;44.316;0.092;2024-02-21T12:49:45;19.51;48.69
76785;SHT30;66893;44.316;0.092;2024-02-21T12:52:11;19.58;48.62
76785;SHT30;66893;44.316;0.092;2024-02-21T12:54:36;19.64;48.50
76785;SHT30;66893;44.316;0.092;2024-02-21T12:57:02;19.71;48.37
76785;SHT30;66893;44.316;0.092;2024-02-21T12:59:28;19.79;48.33
76785;SHT30;66893;44.316;0.092;2024-02-21T13:01:54;19.86;48.22
76785;SHT30;66893;44.316;0.092;2024-02-21T13:04:19;19.92;48.14
76785;SHT30;66893;44.316;0.092;2024-02-21T13:06:46;19.96;48.12
76785;SHT30;66893;44.316;0.092;2024-02-21T13:09:12;20.00;48.11
76785;SHT30;66893;44.316;0.092;2024-02-21T13:11:39;20.05;48.20
76785;SHT30;66893;44.316;0.092;2024-02-21T13:14:05;20.08;48.16
76785;SHT30;66893;44.316;0.092;2024-02-21T13:16:31;20.09;48.13
76785;SHT30;66893;44.316;0.092;2024-02-21T13:18:56;20.13;48.16
76785;SHT30;66893;44.316;0.092;2024-02-21T13:21:22;20.15;48.16
76785;SHT30;66893;44.316;0.092;2024-02-21T13:23:48;20.23;48.15
76785;SHT30;66893;44.316;0.092;2024-02-21T13:26:13;20.24;48.12
76785;SHT30;66893;44.316;0.092;2024-02-21T13:28:39;20.27;48.16
76785;SHT30;66893;44.316;0.092;2024-02-21T13:31:04;20.29;48.01
76785;SHT30;66893;44.316;0.092;2024-02-21T13:33:30;20.29;48.24
76785;SHT30;66893;44.316;0.092;2024-02-21T13:35:55;20.30;48.16
76785;SHT30;66893;44.316;0.092;2024-02-21T13:38:21;20.26;48.15
76785;SHT30;66893;44.316;0.092;2024-02-21T13:40:46;20.26;48.42
76785;SHT30;66893;44.316;0.092;2024-02-21T13:43:12;20.26;48.50
76785;SHT30;66893;44.316;0.092;2024-02-21T13:45:38;20.32;48.48
76785;SHT30;66893;44.316;0.092;2024-02-21T13:48:04;20.30;48.51
76785;SHT30;66893;44.316;0.092;2024-02-21T13:50:31;20.30;48.48
76785;SHT30;66893;44.316;0.092;2024-02-21T13:52:57;20.26;48.20
76785;SHT30;66893;44.316;0.092;2024-02-21T13:55:23;20.17;48.07
76785;SHT30;66893;44.316;0.092;2024-02-21T13:57:51;20.08;48.05
76785;SHT30;66893;44.316;0.092;2024-02-21T14:00:16;19.98;48.04
76785;SHT30;66893;44.316;0.092;2024-02-21T14:02:43;19.89;47.95
76785;SHT30;66893;44.316;0.092;2024-02-21T14:05:09;19.82;47.99
76785;SHT30;66893;44.316;0.092;2024-02-21T14:07:35;19.72;48.04
76785;SHT30;66893;44.316;0.092;2024-02-21T14:10:00;19.65;48.11
76785;SHT30;66893;44.316;0.092;2024-02-21T14:12:26;19.61;48.00
76785;SHT30;66893;44.316;0.092;2024-02-21T14:14:51;19.54;48.04
76785;SHT30;66893;44.316;0.092;2024-02-21T14:17:17;19.50;48.13
76785;SHT30;66893;44.316;0.092;2024-02-21T14:19:43;19.44;48.17
76785;SHT30;66893;44.316;0.092;2024-02-21T14:22:08;19.38;48.17
76785;SHT30;66893;44.316;0.092;2024-02-21T14:24:36;19.33;48.22
76785;SHT30;66893;44.316;0.092;2024-02-21T14:27:01;19.31;48.20
76785;SHT30;66893;44.316;0.092;2024-02-21T14:29:28;19.26;48.25
76785;SHT30;66893;44.316;0.092;2024-02-21T14:31:54;19.24;48.20
76785;SHT30;66893;44.316;0.092;2024-02-21T14:34:19;19.22;48.26
76785;SHT30;66893;44.316;0.092;2024-02-21T14:36:45;19.20;48.24
76785;SHT30;66893;44.316;0.092;2024-02-21T14:39:10;19.19;48.30
76785;SHT30;66893;44.316;0.092;2024-02-21T14:41:36;19.17;48.38
76785;SHT30;66893;44.316;0.092;2024-02-21T14:44:02;19.13;48.36
76785;SHT30;66893;44.316;0.092;2024-02-21T14:46:28;19.09;48.36
76785;SHT30;66893;44.316;0.092;2024-02-21T14:48:57;19.06;48.44
76785;SHT30;66893;44.316;0.092;2024-02-21T14:51:23;19.03;48.58
76785;SHT30;66893;44.316;0.092;2024-02-21T14:53:48;19.00;48.59
76785;SHT30;66893;44.316;0.092;2024-02-21T14:56:17;19.00;48.62
76785;SHT30;66893;44.316;0.092;2024-02-21T14:58:43;18.98;48.65
76785;SHT30;66893;44.316;0.092;2024-02-21T15:01:08;18.94;48.78
76785;SHT30;66893;44.316;0.092;2024-02-21T15:03:34;18.92;48.93
76785;SHT30;66893;44.316;0.092;2024-02-21T15:06:00;18.91;48.97
76785;SHT30;66893;44.316;0.092;2024-02-21T15:08:27;18.91;49.13
76785;SHT30;66893;44.316;0.092;2024-02-21T15:10:53;18.86;49.20
76785;SHT30;66893;44.316;0.092;2024-02-21T15:13:19;18.86;49.22
76785;SHT30;66893;44.316;0.092;2024-02-21T15:15:44;18.82;49.28
76785;SHT30;66893;44.316;0.092;2024-02-21T15:18:10;18.81;49.28
76785;SHT30;66893;44.316;0.092;2024-02-21T15:20:35;18.76;49.32
76785;SHT30;66893;44.316;0.092;2024-02-21T15:23:02;18.76;49.38
76785;SHT30;66893;44.316;0.092;2024-02-21T15:25:30;18.72;49.41
76785;SHT30;66893;44.316;0.092;2024-02-21T15:27:56;18.73;49.48
76785;SHT30;66893;44.316;0.092;2024-02-21T15:30:21;18.68;49.56